sensor_id;sensor_type;location;lat;lon;timestamp;temperature;humidity
45319;DHT22;31057;48.498;32.260;2023-07-22T00:01:54;14.90;99.90
45319;DHT22;31057;48.498;32.260;2023-07-22T00:03:56;14.80;99.90
45319;DHT22;31057;48.498;32.260;2023-07-22T00:06:03;14.90;99.90
45319;DHT22;31057;48.498;32.260;2023-07-22T00:08:05;14.90;99.90
45319;DHT22;31057;48.498;32.260;2023-07-22T00:10:07;15.00;99.90
45319;DHT22;31057;48.498;32.260;2023-07-22T00:12:09;14.90;99.90
45319;DHT22;31057;48.498;32.260;2023-07-22T00:14:11;14.90;99.90
45319;DHT22;31057;48.498;32.260;2023-07-22T00:16:13;15.00;99.90
45319;DHT22;31057;48.498;32.260;2023-07-22T00:18:15;15.00;99.90
45319;DHT22;31057;48.498;32.260;2023-07-22T00:20:18;15.20;99.90
45319;DHT22;31057;48.498;32.260;2023-07-22T00:22:21;15.20;99.90
45319;DHT22;31057;48.498;32.260;2023-07-22T00:24:23;15.20;99.90
45319;DHT22;31057;48.498;32.260;2023-07-22T00:26:25;15.10;99.90
45319;DHT22;31057;48.498;32.260;2023-07-22T00:28:27;15.10;99.90
45319;DHT22;31057;48.498;32.260;2023-07-22T00:30:29;15.00;99.90
45319;DHT22;31057;48.498;32.260;2023-07-22T00:32:31;15.00;99.90
45319;DHT22;31057;48.498;32.260;2023-07-22T00:34:33;14.80;99.90
45319;DHT22;31057;48.498;32.260;2023-07-22T00:36:35;14.80;99.90
45319;DHT22;31057;48.498;32.260;2023-07-22T00:38:36;14.70;99.90
45319;DHT22;31057;48.498;32.260;2023-07-22T00:40:38;14.70;99.90
45319;DHT22;31057;48.498;32.260;2023-07-22T00:42:41;14.70;99.90
45319;DHT22;31057;48.498;32.260;2023-07-22T00:44:43;14.70;99.90
45319;DHT22;31057;48.498;32.260;2023-07-22T00:46:45;14.70;99.90
45319;DHT22;31057;48.498;32.260;2023-07-22T00:48:47;14.60;99.90
45319;DHT22;31057;48.498;32.260;2023-07-22T00:50:49;14.60;99.90
45319;DHT22;31057;48.498;32.260;2023-07-22T00:52:51;14.60;99.90
45319;DHT22;31057;48.498;32.260;2023-07-22T00:54:53;14.50;99.90
45319;DHT22;31057;48.498;32.260;2023-07-22T00:56:56;14.50;99.90
45319;DHT22;31057;48.498;32.260;2023-07-22T00:58:58;14.40;99.90
45319;DHT22;31057;48.498;32.260;2023-07-22T01:01:00;14.40;99.90
45319;DHT22;31057;48.498;32.260;2023-07-22T01:03:02;14.50;99.90
45319;DHT22;31057;48.498;32.260;2023-07-22T01:05:05;14.50;99.90
45319;DHT22;31057;48.498;32.260;2023-07-22T01:07:07;14.60;99.90
45319;DHT22;31057;48.498;32.260;2023-07-22T01:09:13;14.50;99.90
45319;DHT22;31057;48.498;32.260;2023-07-22T01:11:15;14.60;99.90
45319;DHT22;31057;48.498;32.260;2023-07-22T01:13:17;14.60;99.90
45319;DHT22;31057;48.498;32.260;2023-07-22T01:15:19;14.60;99.90
45319;DHT22;31057;48.498;32.260;2023-07-22T01:17:21;14.60;99.90
45319;DHT22;31057;48.498;32.260;2023-07-22T01:19:23;14.60;99.90
45319;DHT22;31057;48.498;32.260;2023-07-22T01:21:25;14.60;99.90
45319;DHT22;31057;48.498;32.260;2023-07-22T01:23:27;14.60;99.90
45319;DHT22;31057;48.498;32.260;2023-07-22T01:25:29;14.70;99.90
45319;DHT22;31057;48.498;32.260;2023-07-22T01:27:31;14.70;99.90
45319;DHT22;31057;48.498;32.260;2023-07-22T01:29:33;14.80;99.90
45319;DHT22;31057;48.498;32.260;2023-07-22T01:31:35;14.70;99.90
45319;DHT22;31057;48.498;32.260;2023-07-22T01:33:37;14.70;99.90
45319;DHT22;31057;48.498;32.260;2023-07-22T01:35:40;14.70;99.90
45319;DHT22;31057;48.498;32.260;2023-07-22T01:37:42;14.60;99.90
45319;DHT22;31057;48.498;32.260;2023-07-22T01:39:44;14.60;99.90
45319;DHT22;31057;48.498;32.260;2023-07-22T01:41:46;14.40;99.90
45319;DHT22;31057;48.498;32.260;2023-07-22T01:43:48;14.30;99.90
45319;DHT22;31057;48.498;32.260;2023-07-22T01:45:50;14.30;99.90
45319;DHT22;31057;48.498;32.260;2023-07-22T01:47:52;14.20;99.90
45319;DHT22;31057;48.498;32.260;2023-07-22T01:49:54;14.20;99.90
45319;DHT22;31057;48.498;32.260;2023-07-22T01:51:55;14.20;99.90
45319;DHT22;31057;48.498;32.260;2023-07-22T01:53:57;14.10;99.90
45319;DHT22;31057;48.498;32.260;2023-07-22T01:55:59;14.10;99.90
45319;DHT22;31057;48.498;32.260;2023-07-22T01:58:01;14.20;99.90
45319;DHT22;31057;48.498;32.260;2023-07-22T02:00:03;14.10;99.90
45319;DHT22;31057;48.498;32.260;2023-07-22T02:02:07;14.00;99.90
45319;DHT22;31057;48.498;32.260;2023-07-22T02:04:08;14.10;99.90
45319;DHT22;31057;48.498;32.260;2023-07-22T02:06:13;14.00;99.90
45319;DHT22;31057;48.498;32.260;2023-07-22T02:08:14;14.10;99.90
45319;DHT22;31057;48.498;32.260;2023-07-22T02:10:16;14.00;99.90
45319;DHT22;31057;48.498;32.260;2023-07-22T02:12:18;14.00;99.90
45319;DHT22;31057;48.498;32.260;2023-07-22T02:14:20;14.00;99.90
45319;DHT22;31057;48.498;32.260;2023-07-22T02:16:22;14.00;99.90
45319;DHT22;31057;48.498;32.260;2023-07-22T02:18:24;14.00;99.90
45319;DHT22;31057;48.498;32.260;2023-07-22T02:20:26;14.00;99.90
45319;DHT22;31057;48.498;32.260;2023-07-22T02:22:30;14.10;99.90
45319;DHT22;31057;48.498;32.260;2023-07-22T02:24:32;14.10;99.90
45319;DHT22;31057;48.498;32.260;2023-07-22T02:26:35;14.20;99.90
45319;DHT22;31057;48.498;32.260;2023-07-22T02:28:37;14.20;99.90
45319;DHT22;31057;48.498;32.260;2023-07-22T02:30:39;14.20;99.90
45319;DHT22;31057;48.498;32.260;2023-07-22T02:32:41;14.20;99.90
45319;DHT22;31057;48.498;32.260;2023-07-22T02:34:43;14.30;99.90
45319;DHT22;31057;48.498;32.260;2023-07-22T02:36:45;14.40;99.90
45319;DHT22;31057;48.498;32.260;2023-07-22T02:38:46;14.40;99.90
45319;DHT22;31057;48.498;32.260;2023-07-22T02:40:48;14.50;99.90
45319;DHT22;31057;48.498;32.260;2023-07-22T02:42:50;14.60;99.90
45319;DHT22;31057;48.498;32.260;2023-07-22T02:44:52;14.70;99.90
45319;DHT22;31057;48.498;32.260;2023-07-22T02:46:54;14.70;99.90
45319;DHT22;31057;48.498;32.260;2023-07-22T02:48:55;14.80;99.90
45319;DHT22;31057;48.498;32.260;2023-07-22T02:51:04;14.80;99.90
45319;DHT22;31057;48.498;32.260;2023-07-22T02:53:06;14.80;99.90
45319;DHT22;31057;48.498;32.260;2023-07-22T02:55:09;14.90;99.90
45319;DHT22;31057;48.498;32.260;2023-07-22T02:57:14;15.10;99.90
45319;DHT22;31057;48.498;32.260;2023-07-22T02:59:16;15.80;99.90
45319;DHT22;31057;48.498;32.260;2023-07-22T03:01:17;16.20;99.90
45319;DHT22;31057;48.498;32.260;2023-07-22T03:03:20;16.40;99.90
45319;DHT22;31057;48.498;32.260;2023-07-22T03:05:22;16.30;99.90
45319;DHT22;31057;48.498;32.260;2023-07-22T03:07:24;16.10;99.90
45319;DHT22;31057;48.498;32.260;2023-07-22T03:09:28;15.90;99.90
45319;DHT22;31057;48.498;32.260;2023-07-22T03:11:29;15.70;99.90
45319;DHT22;31057;48.498;32.260;2023-07-22T03:13:31;15.50;99.90
45319;DHT22;31057;48.498;32.260;2023-07-22T03:15:35;15.50;99.90
45319;DHT22;31057;48.498;32.260;2023-07-22T03:17:37;15.40;99.90
45319;DHT22;31057;48.498;32.260;2023-07-22T03:19:40;15.30;99.90
45319;DHT22;31057;48.498;32.260;2023-07-22T03:21:42;15.20;99.90
45319;DHT22;31057;48.498;32.260;2023-07-22T03:23:43;15.30;99.90
45319;DHT22;31057;48.498;32.260;2023-07-22T03:25:45;15.40;99.90
45319;DHT22;31057;48.498;32.260;2023-07-22T03:27:47;15.50;99.90
45319;DHT22;31057;48.498;32.260;2023-07-22T03:29:49;15.50;99.90
45319;DHT22;31057;48.498;32.260;2023-07-22T03:31:51;15.50;99.90
45319;DHT22;31057;48.498;32.260;2023-07-22T03:33:53;15.50;99.90
45319;DHT22;31057;48.498;32.260;2023-07-22T03:35:54;15.50;99.90
45319;DHT22;31057;48.498;32.260;2023-07-22T03:37:56;15.70;99.90
45319;DHT22;31057;48.498;32.260;2023-07-22T03:39:58;15.60;99.90
45319;DHT22;31057;48.498;32.260;2023-07-22T03:42:00;15.60;99.90
45319;DHT22;31057;48.498;32.260;2023-07-22T03:44:02;15.60;99.90
45319;DHT22;31057;48.498;32.260;2023-07-22T03:46:04;15.70;99.90
45319;DHT22;31057;48.498;32.260;2023-07-22T03:48:06;15.80;99.90
45319;DHT22;31057;48.498;32.260;2023-07-22T03:50:08;15.70;99.90
45319;DHT22;31057;48.498;32.260;2023-07-22T03:52:12;15.80;99.90
45319;DHT22;31057;48.498;32.260;2023-07-22T03:54:16;15.80;99.90
45319;DHT22;31057;48.498;32.260;2023-07-22T03:56:17;15.80;99.90
45319;DHT22;31057;48.498;32.260;2023-07-22T03:58:19;15.90;99.90
45319;DHT22;31057;48.498;32.260;2023-07-22T04:00:21;16.10;99.90
45319;DHT22;31057;48.498;32.260;2023-07-22T04:02:23;16.20;99.90
45319;DHT22;31057;48.498;32.260;2023-07-22T04:04:25;16.40;99.90
45319;DHT22;31057;48.498;32.260;2023-07-22T04:06:27;16.60;99.90
45319;DHT22;31057;48.498;32.260;2023-07-22T04:08:29;16.70;99.90
45319;DHT22;31057;48.498;32.260;2023-07-22T04:10:32;17.00;99.90
45319;DHT22;31057;48.498;32.260;2023-07-22T04:12:33;17.20;99.90
45319;DHT22;31057;48.498;32.260;2023-07-22T04:14:35;17.10;99.90
45319;DHT22;31057;48.498;32.260;2023-07-22T04:16:38;17.20;99.90
45319;DHT22;31057;48.498;32.260;2023-07-22T04:18:40;17.50;99.90
45319;DHT22;31057;48.498;32.260;2023-07-22T04:20:42;17.50;99.90
45319;DHT22;31057;48.498;32.260;2023-07-22T04:22:44;17.80;99.90
45319;DHT22;31057;48.498;32.260;2023-07-22T04:24:45;17.90;99.90
45319;DHT22;31057;48.498;32.260;2023-07-22T04:26:50;17.80;99.90
45319;DHT22;31057;48.498;32.260;2023-07-22T04:28:52;17.80;99.90
45319;DHT22;31057;48.498;32.260;2023-07-22T04:30:55;18.10;99.90
45319;DHT22;31057;48.498;32.260;2023-07-22T04:32:57;18.10;99.90
45319;DHT22;31057;48.498;32.260;2023-07-22T04:35:02;18.30;99.90
45319;DHT22;31057;48.498;32.260;2023-07-22T04:37:06;18.40;99.90
45319;DHT22;31057;48.498;32.260;2023-07-22T04:39:08;18.50;99.90
45319;DHT22;31057;48.498;32.260;2023-07-22T04:41:10;18.50;99.90
45319;DHT22;31057;48.498;32.260;2023-07-22T04:43:12;18.70;99.90
45319;DHT22;31057;48.498;32.260;2023-07-22T04:45:13;18.70;99.90
45319;DHT22;31057;48.498;32.260;2023-07-22T04:47:15;18.80;99.90
45319;DHT22;31057;48.498;32.260;2023-07-22T04:49:17;18.80;99.90
45319;DHT22;31057;48.498;32.260;2023-07-22T04:51:20;19.10;99.90
45319;DHT22;31057;48.498;32.260;2023-07-22T04:53:22;19.20;99.90
45319;DHT22;31057;48.498;32.260;2023-07-22T04:55:24;19.20;99.90
45319;DHT22;31057;48.498;32.260;2023-07-22T04:57:26;19.20;99.90
45319;DHT22;31057;48.498;32.260;2023-07-22T04:59:27;19.30;99.90
45319;DHT22;31057;48.498;32.260;2023-07-22T05:01:30;19.30;99.90
45319;DHT22;31057;48.498;32.260;2023-07-22T05:03:31;19.30;99.90
45319;DHT22;31057;48.498;32.260;2023-07-22T05:05:33;19.30;99.90
45319;DHT22;31057;48.498;32.260;2023-07-22T05:07:35;19.20;99.90
45319;DHT22;31057;48.498;32.260;2023-07-22T05:09:37;19.30;99.90
45319;DHT22;31057;48.498;32.260;2023-07-22T05:11:39;19.40;99.90
45319;DHT22;31057;48.498;32.260;2023-07-22T05:13:41;19.70;99.90
45319;DHT22;31057;48.498;32.260;2023-07-22T05:15:43;19.90;99.90
45319;DHT22;31057;48.498;32.260;2023-07-22T05:17:44;20.10;99.90
45319;DHT22;31057;48.498;32.260;2023-07-22T05:19:46;20.20;99.90
45319;DHT22;31057;48.498;32.260;2023-07-22T05:21:50;20.40;99.90
45319;DHT22;31057;48.498;32.260;2023-07-22T05:23:52;20.40;99.90
45319;DHT22;31057;48.498;32.260;2023-07-22T05:25:54;20.40;99.90
45319;DHT22;31057;48.498;32.260;2023-07-22T05:27:55;20.60;99.90
45319;DHT22;31057;48.498;32.260;2023-07-22T05:29:57;20.70;99.90
45319;DHT22;31057;48.498;32.260;2023-07-22T05:31:59;20.60;99.90
45319;DHT22;31057;48.498;32.260;2023-07-22T05:34:01;20.60;99.90
45319;DHT22;31057;48.498;32.260;2023-07-22T05:36:03;20.70;99.90
45319;DHT22;31057;48.498;32.260;2023-07-22T05:38:06;21.00;99.90
45319;DHT22;31057;48.498;32.260;2023-07-22T05:40:08;21.50;99.90
45319;DHT22;31057;48.498;32.260;2023-07-22T05:42:10;21.80;99.90
45319;DHT22;31057;48.498;32.260;2023-07-22T05:44:11;21.80;99.90
45319;DHT22;31057;48.498;32.260;2023-07-22T05:46:14;22.00;99.90
45319;DHT22;31057;48.498;32.260;2023-07-22T05:48:17;22.00;99.90
45319;DHT22;31057;48.498;32.260;2023-07-22T05:50:18;21.90;99.90
45319;DHT22;31057;48.498;32.260;2023-07-22T05:52:20;21.90;99.90
45319;DHT22;31057;48.498;32.260;2023-07-22T05:54:22;22.10;99.90
45319;DHT22;31057;48.498;32.260;2023-07-22T05:56:24;22.00;99.90
45319;DHT22;31057;48.498;32.260;2023-07-22T05:58:26;21.70;99.90
45319;DHT22;31057;48.498;32.260;2023-07-22T06:00:28;21.70;99.90
45319;DHT22;31057;48.498;32.260;2023-07-22T06:02:30;21.70;99.90
45319;DHT22;31057;48.498;32.260;2023-07-22T06:04:32;21.60;99.90
45319;DHT22;31057;48.498;32.260;2023-07-22T06:06:34;21.50;99.90
45319;DHT22;31057;48.498;32.260;2023-07-22T06:08:36;21.40;99.90
45319;DHT22;31057;48.498;32.260;2023-07-22T06:10:39;21.50;99.90
45319;DHT22;31057;48.498;32.260;2023-07-22T06:12:41;21.40;99.90
45319;DHT22;31057;48.498;32.260;2023-07-22T06:14:43;21.50;99.90
45319;DHT22;31057;48.498;32.260;2023-07-22T06:16:45;21.40;99.90
45319;DHT22;31057;48.498;32.260;2023-07-22T06:18:49;21.40;99.90
45319;DHT22;31057;48.498;32.260;2023-07-22T06:20:51;21.60;99.90
45319;DHT22;31057;48.498;32.260;2023-07-22T06:22:53;21.70;99.90
45319;DHT22;31057;48.498;32.260;2023-07-22T06:24:54;21.90;99.90
45319;DHT22;31057;48.498;32.260;2023-07-22T06:26:56;22.10;99.90
45319;DHT22;31057;48.498;32.260;2023-07-22T06:28:58;22.10;99.90
45319;DHT22;31057;48.498;32.260;2023-07-22T06:31:00;22.10;99.90
45319;DHT22;31057;48.498;32.260;2023-07-22T06:33:02;22.00;99.90
45319;DHT22;31057;48.498;32.260;2023-07-22T06:35:04;21.90;99.90
45319;DHT22;31057;48.498;32.260;2023-07-22T06:37:06;22.00;99.90
45319;DHT22;31057;48.498;32.260;2023-07-22T06:39:08;22.10;99.90
45319;DHT22;31057;48.498;32.260;2023-07-22T06:41:10;22.10;99.90
45319;DHT22;31057;48.498;32.260;2023-07-22T06:43:11;22.50;99.90
45319;DHT22;31057;48.498;32.260;2023-07-22T06:45:13;22.50;99.90
45319;DHT22;31057;48.498;32.260;2023-07-22T06:47:15;22.70;99.90
45319;DHT22;31057;48.498;32.260;2023-07-22T06:49:17;22.80;99.90
45319;DHT22;31057;48.498;32.260;2023-07-22T06:51:19;22.70;99.90
45319;DHT22;31057;48.498;32.260;2023-07-22T06:53:21;22.70;99.90
45319;DHT22;31057;48.498;32.260;2023-07-22T06:55:22;23.00;99.90
45319;DHT22;31057;48.498;32.260;2023-07-22T06:57:24;23.10;99.90
45319;DHT22;31057;48.498;32.260;2023-07-22T06:59:27;23.40;99.90
45319;DHT22;31057;48.498;32.260;2023-07-22T07:01:29;23.70;99.90
45319;DHT22;31057;48.498;32.260;2023-07-22T07:03:31;23.70;99.90
45319;DHT22;31057;48.498;32.260;2023-07-22T07:05:33;23.70;99.90
45319;DHT22;31057;48.498;32.260;2023-07-22T07:07:36;23.70;99.90
45319;DHT22;31057;48.498;32.260;2023-07-22T07:09:38;23.60;99.90
45319;DHT22;31057;48.498;32.260;2023-07-22T07:11:40;23.40;99.90
45319;DHT22;31057;48.498;32.260;2023-07-22T07:13:42;23.10;99.90
45319;DHT22;31057;48.498;32.260;2023-07-22T07:15:47;22.90;99.90
45319;DHT22;31057;48.498;32.260;2023-07-22T07:17:52;22.70;99.90
45319;DHT22;31057;48.498;32.260;2023-07-22T07:19:54;22.60;99.90
45319;DHT22;31057;48.498;32.260;2023-07-22T07:21:56;22.50;99.90
45319;DHT22;31057;48.498;32.260;2023-07-22T07:23:57;22.40;99.90
45319;DHT22;31057;48.498;32.260;2023-07-22T07:25:59;22.30;99.90
45319;DHT22;31057;48.498;32.260;2023-07-22T07:28:01;22.10;99.90
45319;DHT22;31057;48.498;32.260;2023-07-22T07:30:04;22.00;99.90
45319;DHT22;31057;48.498;32.260;2023-07-22T07:32:07;21.90;99.90
45319;DHT22;31057;48.498;32.260;2023-07-22T07:34:09;21.90;99.90
45319;DHT22;31057;48.498;32.260;2023-07-22T07:36:11;22.00;99.90
45319;DHT22;31057;48.498;32.260;2023-07-22T07:38:13;22.10;99.90
45319;DHT22;31057;48.498;32.260;2023-07-22T07:40:14;22.10;99.90
45319;DHT22;31057;48.498;32.260;2023-07-22T07:42:16;22.00;99.90
45319;DHT22;31057;48.498;32.260;2023-07-22T07:44:18;22.10;99.90
45319;DHT22;31057;48.498;32.260;2023-07-22T07:46:21;22.00;99.90
45319;DHT22;31057;48.498;32.260;2023-07-22T07:48:24;22.10;99.90
45319;DHT22;31057;48.498;32.260;2023-07-22T07:50:26;22.10;99.90
45319;DHT22;31057;48.498;32.260;2023-07-22T07:52:28;22.20;99.90
45319;DHT22;31057;48.498;32.260;2023-07-22T07:54:30;22.20;99.90
45319;DHT22;31057;48.498;32.260;2023-07-22T07:56:33;22.10;99.90
45319;DHT22;31057;48.498;32.260;2023-07-22T07:58:35;22.10;99.90
45319;DHT22;31057;48.498;32.260;2023-07-22T08:00:37;22.00;99.90
45319;DHT22;31057;48.498;32.260;2023-07-22T08:02:39;22.00;99.90
45319;DHT22;31057;48.498;32.260;2023-07-22T08:04:41;22.00;99.90
45319;DHT22;31057;48.498;32.260;2023-07-22T08:06:43;22.00;99.90
45319;DHT22;31057;48.498;32.260;2023-07-22T08:08:46;22.00;99.90
45319;DHT22;31057;48.498;32.260;2023-07-22T08:10:57;21.90;99.90
45319;DHT22;31057;48.498;32.260;2023-07-22T08:12:59;21.90;99.90
45319;DHT22;31057;48.498;32.260;2023-07-22T08:15:01;21.80;99.90
45319;DHT22;31057;48.498;32.260;2023-07-22T08:17:03;21.70;99.90
45319;DHT22;31057;48.498;32.260;2023-07-22T08:19:05;21.70;99.90
45319;DHT22;31057;48.498;32.260;2023-07-22T08:21:07;21.70;99.90
45319;DHT22;31057;48.498;32.260;2023-07-22T08:23:09;21.60;99.90
45319;DHT22;31057;48.498;32.260;2023-07-22T08:25:11;21.50;99.90
45319;DHT22;31057;48.498;32.260;2023-07-22T08:27:13;21.50;99.90
45319;DHT22;31057;48.498;32.260;2023-07-22T08:29:15;21.20;99.90
45319;DHT22;31057;48.498;32.260;2023-07-22T08:31:17;21.10;99.90
45319;DHT22;31057;48.498;32.260;2023-07-22T08:33:19;21.10;99.90
45319;DHT22;31057;48.498;32.260;2023-07-22T08:35:40;21.10;99.90
45319;DHT22;31057;48.498;32.260;2023-07-22T08:37:42;21.10;99.90
45319;DHT22;31057;48.498;32.260;2023-07-22T08:39:44;21.20;99.90
45319;DHT22;31057;48.498;32.260;2023-07-22T08:41:47;21.20;99.90
45319;DHT22;31057;48.498;32.260;2023-07-22T08:43:49;21.00;99.90
45319;DHT22;31057;48.498;32.260;2023-07-22T08:45:52;20.80;99.90
45319;DHT22;31057;48.498;32.260;2023-07-22T08:47:54;20.90;99.90
45319;DHT22;31057;48.498;32.260;2023-07-22T08:50:00;20.80;99.90
45319;DHT22;31057;48.498;32.260;2023-07-22T08:52:03;20.90;99.90
45319;DHT22;31057;48.498;32.260;2023-07-22T08:54:05;21.00;99.90
45319;DHT22;31057;48.498;32.260;2023-07-22T08:56:12;21.00;99.90
45319;DHT22;31057;48.498;32.260;2023-07-22T08:58:14;21.10;99.90
45319;DHT22;31057;48.498;32.260;2023-07-22T09:00:17;21.10;99.90
45319;DHT22;31057;48.498;32.260;2023-07-22T09:02:20;21.10;99.90
45319;DHT22;31057;48.498;32.260;2023-07-22T09:04:22;21.10;99.90
45319;DHT22;31057;48.498;32.260;2023-07-22T09:06:24;21.10;99.90
45319;DHT22;31057;48.498;32.260;2023-07-22T09:08:26;21.10;99.90
45319;DHT22;31057;48.498;32.260;2023-07-22T09:10:28;21.20;99.90
45319;DHT22;31057;48.498;32.260;2023-07-22T09:12:31;21.30;99.90
45319;DHT22;31057;48.498;32.260;2023-07-22T09:14:33;21.30;99.90
45319;DHT22;31057;48.498;32.260;2023-07-22T09:16:37;21.40;99.90
45319;DHT22;31057;48.498;32.260;2023-07-22T09:18:40;21.30;99.90
45319;DHT22;31057;48.498;32.260;2023-07-22T09:20:41;21.10;99.90
45319;DHT22;31057;48.498;32.260;2023-07-22T09:22:44;21.10;99.90
45319;DHT22;31057;48.498;32.260;2023-07-22T09:24:49;20.90;99.90
45319;DHT22;31057;48.498;32.260;2023-07-22T09:26:51;20.90;99.90
45319;DHT22;31057;48.498;32.260;2023-07-22T09:28:57;20.80;99.90
45319;DHT22;31057;48.498;32.260;2023-07-22T09:31:02;20.80;99.90
45319;DHT22;31057;48.498;32.260;2023-07-22T09:33:19;20.80;99.90
45319;DHT22;31057;48.498;32.260;2023-07-22T09:35:21;20.90;99.90
45319;DHT22;31057;48.498;32.260;2023-07-22T09:37:24;20.80;99.90
45319;DHT22;31057;48.498;32.260;2023-07-22T09:39:37;20.70;99.90
45319;DHT22;31057;48.498;32.260;2023-07-22T09:41:41;20.60;99.90
45319;DHT22;31057;48.498;32.260;2023-07-22T09:43:46;20.60;99.90
45319;DHT22;31057;48.498;32.260;2023-07-22T09:45:48;20.50;99.90
45319;DHT22;31057;48.498;32.260;2023-07-22T09:47:51;20.50;99.90
45319;DHT22;31057;48.498;32.260;2023-07-22T09:49:53;20.40;99.90
45319;DHT22;31057;48.498;32.260;2023-07-22T09:51:55;20.40;99.90
45319;DHT22;31057;48.498;32.260;2023-07-22T09:54:04;20.20;99.90
45319;DHT22;31057;48.498;32.260;2023-07-22T09:56:06;20.20;99.90
45319;DHT22;31057;48.498;32.260;2023-07-22T09:58:08;20.20;99.90
45319;DHT22;31057;48.498;32.260;2023-07-22T10:00:11;20.20;99.90
45319;DHT22;31057;48.498;32.260;2023-07-22T10:02:13;20.10;99.90
45319;DHT22;31057;48.498;32.260;2023-07-22T10:04:18;20.00;99.90
45319;DHT22;31057;48.498;32.260;2023-07-22T10:06:29;20.10;99.90
45319;DHT22;31057;48.498;32.260;2023-07-22T10:08:32;20.10;99.90
45319;DHT22;31057;48.498;32.260;2023-07-22T10:10:39;20.10;99.90
45319;DHT22;31057;48.498;32.260;2023-07-22T10:12:42;20.10;99.90
45319;DHT22;31057;48.498;32.260;2023-07-22T10:14:44;20.20;99.90
45319;DHT22;31057;48.498;32.260;2023-07-22T10:16:46;20.30;99.90
45319;DHT22;31057;48.498;32.260;2023-07-22T10:18:48;20.30;99.90
45319;DHT22;31057;48.498;32.260;2023-07-22T10:20:50;20.20;99.90
45319;DHT22;31057;48.498;32.260;2023-07-22T10:22:52;20.30;99.90
45319;DHT22;31057;48.498;32.260;2023-07-22T10:24:54;20.50;99.90
45319;DHT22;31057;48.498;32.260;2023-07-22T10:26:56;20.60;99.90
45319;DHT22;31057;48.498;32.260;2023-07-22T10:28:58;20.60;99.90
45319;DHT22;31057;48.498;32.260;2023-07-22T10:31:00;20.60;99.90
45319;DHT22;31057;48.498;32.260;2023-07-22T10:33:02;20.60;99.90
45319;DHT22;31057;48.498;32.260;2023-07-22T10:35:09;20.60;99.90
45319;DHT22;31057;48.498;32.260;2023-07-22T10:37:13;20.80;99.90
45319;DHT22;31057;48.498;32.260;2023-07-22T10:39:24;20.80;99.90
45319;DHT22;31057;48.498;32.260;2023-07-22T10:41:27;20.80;99.90
45319;DHT22;31057;48.498;32.260;2023-07-22T10:43:30;20.60;99.90
45319;DHT22;31057;48.498;32.260;2023-07-22T10:45:33;20.70;99.90
45319;DHT22;31057;48.498;32.260;2023-07-22T10:47:35;20.70;99.90
45319;DHT22;31057;48.498;32.260;2023-07-22T10:49:45;20.80;99.90
45319;DHT22;31057;48.498;32.260;2023-07-22T10:51:47;20.90;99.90
45319;DHT22;31057;48.498;32.260;2023-07-22T10:53:50;21.00;99.90
45319;DHT22;31057;48.498;32.260;2023-07-22T10:58:27;20.90;99.90
45319;DHT22;31057;48.498;32.260;2023-07-22T11:00:31;20.90;99.90
45319;DHT22;31057;48.498;32.260;2023-07-22T11:02:33;20.90;99.90
45319;DHT22;31057;48.498;32.260;2023-07-22T11:04:35;21.10;99.90
45319;DHT22;31057;48.498;32.260;2023-07-22T11:06:55;21.20;99.90
45319;DHT22;31057;48.498;32.260;2023-07-22T11:08:58;21.40;99.90
45319;DHT22;31057;48.498;32.260;2023-07-22T11:10:59;21.40;99.90
45319;DHT22;31057;48.498;32.260;2023-07-22T11:13:01;21.50;99.90
45319;DHT22;31057;48.498;32.260;2023-07-22T11:15:05;21.60;99.90
45319;DHT22;31057;48.498;32.260;2023-07-22T11:17:07;21.40;99.90
45319;DHT22;31057;48.498;32.260;2023-07-22T11:19:09;21.30;99.90
45319;DHT22;31057;48.498;32.260;2023-07-22T11:21:12;21.10;99.90
45319;DHT22;31057;48.498;32.260;2023-07-22T11:23:14;21.20;99.90
45319;DHT22;31057;48.498;32.260;2023-07-22T11:25:18;21.30;99.90
45319;DHT22;31057;48.498;32.260;2023-07-22T11:27:20;21.30;99.90
45319;DHT22;31057;48.498;32.260;2023-07-22T11:29:22;21.40;99.90
45319;DHT22;31057;48.498;32.260;2023-07-22T11:31:30;21.30;99.90
45319;DHT22;31057;48.498;32.260;2023-07-22T11:33:41;21.30;99.90
45319;DHT22;31057;48.498;32.260;2023-07-22T11:35:45;21.20;99.90
45319;DHT22;31057;48.498;32.260;2023-07-22T11:37:47;21.20;99.90
45319;DHT22;31057;48.498;32.260;2023-07-22T11:39:49;21.30;99.90
45319;DHT22;31057;48.498;32.260;2023-07-22T11:41:51;21.30;99.90
45319;DHT22;31057;48.498;32.260;2023-07-22T11:43:53;21.40;99.90
45319;DHT22;31057;48.498;32.260;2023-07-22T11:45:54;21.40;99.90
45319;DHT22;31057;48.498;32.260;2023-07-22T11:47:56;21.30;99.90
45319;DHT22;31057;48.498;32.260;2023-07-22T11:49:58;21.20;99.90
45319;DHT22;31057;48.498;32.260;2023-07-22T11:52:01;21.10;99.90
45319;DHT22;31057;48.498;32.260;2023-07-22T11:54:04;21.20;99.90
45319;DHT22;31057;48.498;32.260;2023-07-22T11:56:09;21.20;99.90
45319;DHT22;31057;48.498;32.260;2023-07-22T11:58:11;21.30;99.90
45319;DHT22;31057;48.498;32.260;2023-07-22T12:00:13;21.40;99.90
45319;DHT22;31057;48.498;32.260;2023-07-22T12:02:21;21.20;99.90
45319;DHT22;31057;48.498;32.260;2023-07-22T12:04:24;21.30;99.90
45319;DHT22;31057;48.498;32.260;2023-07-22T12:06:26;21.40;99.90
45319;DHT22;31057;48.498;32.260;2023-07-22T12:08:28;21.50;99.90
45319;DHT22;31057;48.498;32.260;2023-07-22T12:10:30;21.30;99.90
45319;DHT22;31057;48.498;32.260;2023-07-22T12:14:34;21.40;99.90
45319;DHT22;31057;48.498;32.260;2023-07-22T12:16:37;21.40;99.90
45319;DHT22;31057;48.498;32.260;2023-07-22T12:18:45;21.50;99.90
45319;DHT22;31057;48.498;32.260;2023-07-22T12:20:47;21.50;99.90
45319;DHT22;31057;48.498;32.260;2023-07-22T12:22:49;21.40;99.90
45319;DHT22;31057;48.498;32.260;2023-07-22T12:24:51;21.60;99.90
45319;DHT22;31057;48.498;32.260;2023-07-22T12:26:54;21.40;99.90
45319;DHT22;31057;48.498;32.260;2023-07-22T12:28:56;21.50;99.90
45319;DHT22;31057;48.498;32.260;2023-07-22T12:30:58;21.50;99.90
45319;DHT22;31057;48.498;32.260;2023-07-22T12:33:00;21.60;99.90
45319;DHT22;31057;48.498;32.260;2023-07-22T12:35:02;21.70;99.90
45319;DHT22;31057;48.498;32.260;2023-07-22T12:37:05;21.60;99.90
45319;DHT22;31057;48.498;32.260;2023-07-22T12:39:09;21.70;99.90
45319;DHT22;31057;48.498;32.260;2023-07-22T12:41:11;21.80;99.90
45319;DHT22;31057;48.498;32.260;2023-07-22T12:43:13;21.80;99.90
45319;DHT22;31057;48.498;32.260;2023-07-22T12:45:14;21.90;99.90
45319;DHT22;31057;48.498;32.260;2023-07-22T12:47:16;21.80;99.90